sensor_id;sensor_type;location;lat;lon;timestamp;temperature;humidity
74873;HTU21D;68776;44.762;37.698;2023-08-08T00:00:45;24.53;69.33
74873;HTU21D;68776;44.762;37.698;2023-08-08T00:01:45;24.54;69.27
74873;HTU21D;68776;44.762;37.698;2023-08-08T00:02:46;24.51;69.23
74873;HTU21D;68776;44.762;37.698;2023-08-08T00:03:47;24.50;69.20
74873;HTU21D;68776;44.762;37.698;2023-08-08T00:04:49;24.51;69.17
74873;HTU21D;68776;44.762;37.698;2023-08-08T00:05:51;24.49;69.15
74873;HTU21D;68776;44.762;37.698;2023-08-08T00:06:52;24.47;69.13
74873;HTU21D;68776;44.762;37.698;2023-08-08T00:07:53;24.48;69.10
74873;HTU21D;68776;44.762;37.698;2023-08-08T00:08:54;24.47;69.06
74873;HTU21D;68776;44.762;37.698;2023-08-08T00:09:55;24.46;69.03
74873;HTU21D;68776;44.762;37.698;2023-08-08T00:10:56;24.47;69.00
74873;HTU21D;68776;44.762;37.698;2023-08-08T00:11:57;24.44;68.97
74873;HTU21D;68776;44.762;37.698;2023-08-08T00:12:58;24.45;68.96
74873;HTU21D;68776;44.762;37.698;2023-08-08T00:13:59;24.43;68.91
74873;HTU21D;68776;44.762;37.698;2023-08-08T00:15:00;24.44;68.87
74873;HTU21D;68776;44.762;37.698;2023-08-08T00:16:01;24.43;68.83
74873;HTU21D;68776;44.762;37.698;2023-08-08T00:17:03;24.43;68.77
74873;HTU21D;68776;44.762;37.698;2023-08-08T00:18:04;24.44;68.70
74873;HTU21D;68776;44.762;37.698;2023-08-08T00:19:05;24.43;68.66
74873;HTU21D;68776;44.762;37.698;2023-08-08T00:20:08;24.43;68.61
74873;HTU21D;68776;44.762;37.698;2023-08-08T00:21:09;24.43;68.55
74873;HTU21D;68776;44.762;37.698;2023-08-08T00:22:10;24.43;68.48
74873;HTU21D;68776;44.762;37.698;2023-08-08T00:23:11;24.44;68.42
74873;HTU21D;68776;44.762;37.698;2023-08-08T00:24:12;24.44;68.36
74873;HTU21D;68776;44.762;37.698;2023-08-08T00:25:13;24.43;68.31
74873;HTU21D;68776;44.762;37.698;2023-08-08T00:26:14;24.44;68.27
74873;HTU21D;68776;44.762;37.698;2023-08-08T00:27:15;24.43;68.23
74873;HTU21D;68776;44.762;37.698;2023-08-08T00:28:16;24.43;68.20
74873;HTU21D;68776;44.762;37.698;2023-08-08T00:29:17;24.44;68.17
74873;HTU21D;68776;44.762;37.698;2023-08-08T00:30:21;24.43;68.14
74873;HTU21D;68776;44.762;37.698;2023-08-08T00:31:22;24.41;68.14
74873;HTU21D;68776;44.762;37.698;2023-08-08T00:32:23;24.40;68.12
74873;HTU21D;68776;44.762;37.698;2023-08-08T00:33:24;24.40;68.10
74873;HTU21D;68776;44.762;37.698;2023-08-08T00:34:24;24.38;68.07
74873;HTU21D;68776;44.762;37.698;2023-08-08T00:35:25;24.36;68.04
74873;HTU21D;68776;44.762;37.698;2023-08-08T00:36:26;24.38;68.00
74873;HTU21D;68776;44.762;37.698;2023-08-08T00:37:27;24.39;67.94
74873;HTU21D;68776;44.762;37.698;2023-08-08T00:38:28;24.36;67.88
74873;HTU21D;68776;44.762;37.698;2023-08-08T00:39:29;24.38;67.78
74873;HTU21D;68776;44.762;37.698;2023-08-08T00:40:30;24.38;67.65
74873;HTU21D;68776;44.762;37.698;2023-08-08T00:41:31;24.36;67.53
74873;HTU21D;68776;44.762;37.698;2023-08-08T00:42:32;24.34;67.43
74873;HTU21D;68776;44.762;37.698;2023-08-08T00:43:32;24.34;67.36
74873;HTU21D;68776;44.762;37.698;2023-08-08T00:44:33;24.32;67.30
74873;HTU21D;68776;44.762;37.698;2023-08-08T00:45:34;24.29;67.24
74873;HTU21D;68776;44.762;37.698;2023-08-08T00:46:35;24.28;67.19
74873;HTU21D;68776;44.762;37.698;2023-08-08T00:47:36;24.25;67.14
74873;HTU21D;68776;44.762;37.698;2023-08-08T00:48:36;24.21;67.12
74873;HTU21D;68776;44.762;37.698;2023-08-08T00:49:37;24.18;67.12
74873;HTU21D;68776;44.762;37.698;2023-08-08T00:50:41;24.15;67.10
74873;HTU21D;68776;44.762;37.698;2023-08-08T00:51:42;24.14;67.06
74873;HTU21D;68776;44.762;37.698;2023-08-08T00:52:44;24.12;66.99
74873;HTU21D;68776;44.762;37.698;2023-08-08T00:53:45;24.11;66.91
74873;HTU21D;68776;44.762;37.698;2023-08-08T00:54:46;24.11;66.85
74873;HTU21D;68776;44.762;37.698;2023-08-08T00:55:47;24.09;66.79
74873;HTU21D;68776;44.762;37.698;2023-08-08T00:56:48;24.09;66.75
74873;HTU21D;68776;44.762;37.698;2023-08-08T00:57:49;24.06;66.72
74873;HTU21D;68776;44.762;37.698;2023-08-08T00:58:50;24.04;66.68
74873;HTU21D;68776;44.762;37.698;2023-08-08T00:59:51;24.02;66.64
74873;HTU21D;68776;44.762;37.698;2023-08-08T01:00:52;24.00;66.60
74873;HTU21D;68776;44.762;37.698;2023-08-08T01:01:57;23.99;66.56
74873;HTU21D;68776;44.762;37.698;2023-08-08T01:02:58;23.97;66.53
74873;HTU21D;68776;44.762;37.698;2023-08-08T01:03:58;23.98;66.43
74873;HTU21D;68776;44.762;37.698;2023-08-08T01:05:01;23.99;66.33
74873;HTU21D;68776;44.762;37.698;2023-08-08T01:06:04;23.99;66.27
74873;HTU21D;68776;44.762;37.698;2023-08-08T01:08:12;23.98;66.17
74873;HTU21D;68776;44.762;37.698;2023-08-08T01:09:23;23.98;66.13
74873;HTU21D;68776;44.762;37.698;2023-08-08T01:10:25;23.96;66.09
74873;HTU21D;68776;44.762;37.698;2023-08-08T01:11:27;23.94;66.07
74873;HTU21D;68776;44.762;37.698;2023-08-08T01:12:31;23.92;66.04
74873;HTU21D;68776;44.762;37.698;2023-08-08T01:13:32;23.91;66.03
74873;HTU21D;68776;44.762;37.698;2023-08-08T01:14:33;23.92;66.00
74873;HTU21D;68776;44.762;37.698;2023-08-08T01:15:35;23.90;65.95
74873;HTU21D;68776;44.762;37.698;2023-08-08T01:16:36;23.89;65.94
74873;HTU21D;68776;44.762;37.698;2023-08-08T01:17:38;23.87;65.91
74873;HTU21D;68776;44.762;37.698;2023-08-08T01:18:39;23.87;65.88
74873;HTU21D;68776;44.762;37.698;2023-08-08T01:19:41;23.86;65.85
74873;HTU21D;68776;44.762;37.698;2023-08-08T01:20:43;23.85;65.85
74873;HTU21D;68776;44.762;37.698;2023-08-08T01:21:45;23.84;65.80
74873;HTU21D;68776;44.762;37.698;2023-08-08T01:22:56;23.83;65.78
74873;HTU21D;68776;44.762;37.698;2023-08-08T01:24:11;23.82;65.75
74873;HTU21D;68776;44.762;37.698;2023-08-08T01:25:12;23.81;65.72
74873;HTU21D;68776;44.762;37.698;2023-08-08T01:26:13;23.80;65.70
74873;HTU21D;68776;44.762;37.698;2023-08-08T01:27:14;23.80;65.66
74873;HTU21D;68776;44.762;37.698;2023-08-08T01:28:15;23.77;65.62
74873;HTU21D;68776;44.762;37.698;2023-08-08T01:29:15;23.77;65.63
74873;HTU21D;68776;44.762;37.698;2023-08-08T01:30:16;23.76;65.61
74873;HTU21D;68776;44.762;37.698;2023-08-08T01:31:17;23.75;65.59
74873;HTU21D;68776;44.762;37.698;2023-08-08T01:32:18;23.74;65.58
74873;HTU21D;68776;44.762;37.698;2023-08-08T01:33:19;23.77;65.50
74873;HTU21D;68776;44.762;37.698;2023-08-08T01:34:20;23.80;65.53
74873;HTU21D;68776;44.762;37.698;2023-08-08T01:35:23;23.81;65.59
74873;HTU21D;68776;44.762;37.698;2023-08-08T01:36:35;23.82;65.66
74873;HTU21D;68776;44.762;37.698;2023-08-08T01:37:43;23.86;65.62
74873;HTU21D;68776;44.762;37.698;2023-08-08T01:38:46;23.91;66.06
74873;HTU21D;68776;44.762;37.698;2023-08-08T01:39:50;23.96;66.41
74873;HTU21D;68776;44.762;37.698;2023-08-08T01:40:54;24.01;66.72
74873;HTU21D;68776;44.762;37.698;2023-08-08T01:41:56;24.05;66.91
74873;HTU21D;68776;44.762;37.698;2023-08-08T01:42:57;24.08;66.79
74873;HTU21D;68776;44.762;37.698;2023-08-08T01:44:00;24.11;66.69
74873;HTU21D;68776;44.762;37.698;2023-08-08T01:45:03;24.14;66.59
74873;HTU21D;68776;44.762;37.698;2023-08-08T01:46:05;24.15;66.50
74873;HTU21D;68776;44.762;37.698;2023-08-08T01:47:08;24.18;66.42
74873;HTU21D;68776;44.762;37.698;2023-08-08T01:48:11;24.19;66.36
74873;HTU21D;68776;44.762;37.698;2023-08-08T01:49:12;24.23;66.29
74873;HTU21D;68776;44.762;37.698;2023-08-08T01:50:12;24.28;66.15
74873;HTU21D;68776;44.762;37.698;2023-08-08T01:51:13;24.30;66.09
74873;HTU21D;68776;44.762;37.698;2023-08-08T01:52:14;24.30;66.09
74873;HTU21D;68776;44.762;37.698;2023-08-08T01:53:16;24.30;66.11
74873;HTU21D;68776;44.762;37.698;2023-08-08T01:54:17;24.32;66.05
74873;HTU21D;68776;44.762;37.698;2023-08-08T01:55:18;24.34;65.98
74873;HTU21D;68776;44.762;37.698;2023-08-08T01:56:19;24.36;65.96
74873;HTU21D;68776;44.762;37.698;2023-08-08T01:57:20;24.35;65.95
74873;HTU21D;68776;44.762;37.698;2023-08-08T01:58:23;24.35;65.95
74873;HTU21D;68776;44.762;37.698;2023-08-08T01:59:24;24.38;65.92
74873;HTU21D;68776;44.762;37.698;2023-08-08T02:00:25;24.39;65.90
74873;HTU21D;68776;44.762;37.698;2023-08-08T02:01:27;24.42;65.84
74873;HTU21D;68776;44.762;37.698;2023-08-08T02:02:28;24.44;65.78
74873;HTU21D;68776;44.762;37.698;2023-08-08T02:03:29;24.44;65.75
74873;HTU21D;68776;44.762;37.698;2023-08-08T02:04:30;24.44;65.77
74873;HTU21D;68776;44.762;37.698;2023-08-08T02:05:31;24.44;65.79
74873;HTU21D;68776;44.762;37.698;2023-08-08T02:06:32;24.43;65.82
74873;HTU21D;68776;44.762;37.698;2023-08-08T02:07:33;24.45;65.78
74873;HTU21D;68776;44.762;37.698;2023-08-08T02:08:35;24.46;65.75
74873;HTU21D;68776;44.762;37.698;2023-08-08T02:09:36;24.46;65.73
74873;HTU21D;68776;44.762;37.698;2023-08-08T02:10:37;24.46;65.73
74873;HTU21D;68776;44.762;37.698;2023-08-08T02:11:39;24.47;65.72
74873;HTU21D;68776;44.762;37.698;2023-08-08T02:12:40;24.47;65.73
74873;HTU21D;68776;44.762;37.698;2023-08-08T02:13:40;24.44;65.78
74873;HTU21D;68776;44.762;37.698;2023-08-08T02:14:42;24.44;65.82
74873;HTU21D;68776;44.762;37.698;2023-08-08T02:15:43;24.44;65.84
74873;HTU21D;68776;44.762;37.698;2023-08-08T02:16:44;24.46;65.77
74873;HTU21D;68776;44.762;37.698;2023-08-08T02:17:45;24.46;65.73
74873;HTU21D;68776;44.762;37.698;2023-08-08T02:18:46;24.47;65.71
74873;HTU21D;68776;44.762;37.698;2023-08-08T02:19:47;24.46;65.71
74873;HTU21D;68776;44.762;37.698;2023-08-08T02:20:48;24.46;65.75
74873;HTU21D;68776;44.762;37.698;2023-08-08T02:21:49;24.45;65.78
74873;HTU21D;68776;44.762;37.698;2023-08-08T02:22:52;24.43;65.82
74873;HTU21D;68776;44.762;37.698;2023-08-08T02:23:53;24.41;65.86
74873;HTU21D;68776;44.762;37.698;2023-08-08T02:24:54;24.41;65.86
74873;HTU21D;68776;44.762;37.698;2023-08-08T02:25:55;24.41;65.89
74873;HTU21D;68776;44.762;37.698;2023-08-08T02:26:56;24.39;65.93
74873;HTU21D;68776;44.762;37.698;2023-08-08T02:27:57;24.38;65.95
74873;HTU21D;68776;44.762;37.698;2023-08-08T02:28:58;24.35;65.99
74873;HTU21D;68776;44.762;37.698;2023-08-08T02:29:59;24.35;66.01
74873;HTU21D;68776;44.762;37.698;2023-08-08T02:31:00;24.33;66.06
74873;HTU21D;68776;44.762;37.698;2023-08-08T02:32:01;24.33;66.07
74873;HTU21D;68776;44.762;37.698;2023-08-08T02:33:02;24.30;66.09
74873;HTU21D;68776;44.762;37.698;2023-08-08T02:34:03;24.31;66.11
74873;HTU21D;68776;44.762;37.698;2023-08-08T02:35:05;24.30;66.11
74873;HTU21D;68776;44.762;37.698;2023-08-08T02:36:06;24.30;66.09
74873;HTU21D;68776;44.762;37.698;2023-08-08T02:37:07;24.31;66.06
74873;HTU21D;68776;44.762;37.698;2023-08-08T02:38:08;24.32;66.03
74873;HTU21D;68776;44.762;37.698;2023-08-08T02:39:09;24.32;66.01
74873;HTU21D;68776;44.762;37.698;2023-08-08T02:40:10;24.34;66.01
74873;HTU21D;68776;44.762;37.698;2023-08-08T02:41:11;24.33;65.98
74873;HTU21D;68776;44.762;37.698;2023-08-08T02:42:13;24.34;65.98
74873;HTU21D;68776;44.762;37.698;2023-08-08T02:43:14;24.33;65.98
74873;HTU21D;68776;44.762;37.698;2023-08-08T02:44:15;24.33;65.96
74873;HTU21D;68776;44.762;37.698;2023-08-08T02:45:16;24.33;65.98
74873;HTU21D;68776;44.762;37.698;2023-08-08T02:46:17;24.34;65.98
74873;HTU21D;68776;44.762;37.698;2023-08-08T02:47:18;24.34;65.96
74873;HTU21D;68776;44.762;37.698;2023-08-08T02:48:19;24.35;65.94
74873;HTU21D;68776;44.762;37.698;2023-08-08T02:49:20;24.34;65.94
74873;HTU21D;68776;44.762;37.698;2023-08-08T02:50:22;24.34;65.95
74873;HTU21D;68776;44.762;37.698;2023-08-08T02:51:23;24.34;65.95
74873;HTU21D;68776;44.762;37.698;2023-08-08T02:52:24;24.33;65.95
74873;HTU21D;68776;44.762;37.698;2023-08-08T02:53:25;24.34;65.95
74873;HTU21D;68776;44.762;37.698;2023-08-08T02:54:25;24.33;65.95
74873;HTU21D;68776;44.762;37.698;2023-08-08T02:55:26;24.34;65.97
74873;HTU21D;68776;44.762;37.698;2023-08-08T02:56:27;24.33;65.96
74873;HTU21D;68776;44.762;37.698;2023-08-08T02:57:28;24.35;65.94
74873;HTU21D;68776;44.762;37.698;2023-08-08T02:58:30;24.35;65.88
74873;HTU21D;68776;44.762;37.698;2023-08-08T02:59:32;24.40;65.80
74873;HTU21D;68776;44.762;37.698;2023-08-08T03:00:37;24.44;65.72
74873;HTU21D;68776;44.762;37.698;2023-08-08T03:01:40;24.49;65.62
74873;HTU21D;68776;44.762;37.698;2023-08-08T03:02:47;24.55;65.46
74873;HTU21D;68776;44.762;37.698;2023-08-08T03:03:50;24.59;65.40
74873;HTU21D;68776;44.762;37.698;2023-08-08T03:04:53;24.62;65.32
74873;HTU21D;68776;44.762;37.698;2023-08-08T03:05:56;24.66;65.25
74873;HTU21D;68776;44.762;37.698;2023-08-08T03:06:58;24.68;65.23
74873;HTU21D;68776;44.762;37.698;2023-08-08T03:07:59;24.70;65.21
74873;HTU21D;68776;44.762;37.698;2023-08-08T03:09:01;24.72;65.18
74873;HTU21D;68776;44.762;37.698;2023-08-08T03:10:02;24.73;65.18
74873;HTU21D;68776;44.762;37.698;2023-08-08T03:11:06;24.73;65.15
74873;HTU21D;68776;44.762;37.698;2023-08-08T03:12:08;24.78;65.12
74873;HTU21D;68776;44.762;37.698;2023-08-08T03:13:09;24.86;64.98
74873;HTU21D;68776;44.762;37.698;2023-08-08T03:14:10;24.94;64.82
74873;HTU21D;68776;44.762;37.698;2023-08-08T03:15:12;25.00;64.72
74873;HTU21D;68776;44.762;37.698;2023-08-08T03:16:13;25.06;64.64
74873;HTU21D;68776;44.762;37.698;2023-08-08T03:17:14;25.08;64.62
74873;HTU21D;68776;44.762;37.698;2023-08-08T03:18:15;25.12;64.59
74873;HTU21D;68776;44.762;37.698;2023-08-08T03:19:16;25.15;64.56
74873;HTU21D;68776;44.762;37.698;2023-08-08T03:20:18;25.17;64.53
74873;HTU21D;68776;44.762;37.698;2023-08-08T03:21:19;25.20;64.53
74873;HTU21D;68776;44.762;37.698;2023-08-08T03:22:20;25.24;64.50
74873;HTU21D;68776;44.762;37.698;2023-08-08T03:23:20;25.30;64.76
74873;HTU21D;68776;44.762;37.698;2023-08-08T03:24:24;25.34;64.98
74873;HTU21D;68776;44.762;37.698;2023-08-08T03:25:25;25.39;64.86
74873;HTU21D;68776;44.762;37.698;2023-08-08T03:26:26;25.45;64.76
74873;HTU21D;68776;44.762;37.698;2023-08-08T03:27:27;25.47;64.59
74873;HTU21D;68776;44.762;37.698;2023-08-08T03:28:28;25.50;64.39
74873;HTU21D;68776;44.762;37.698;2023-08-08T03:29:30;25.56;64.21
74873;HTU21D;68776;44.762;37.698;2023-08-08T03:30:32;25.57;64.05
74873;HTU21D;68776;44.762;37.698;2023-08-08T03:31:33;25.59;63.92
74873;HTU21D;68776;44.762;37.698;2023-08-08T03:32:37;25.60;63.81
74873;HTU21D;68776;44.762;37.698;2023-08-08T03:33:38;25.60;63.73
74873;HTU21D;68776;44.762;37.698;2023-08-08T03:34:42;25.62;63.65
74873;HTU21D;68776;44.762;37.698;2023-08-08T03:35:45;25.64;63.57
74873;HTU21D;68776;44.762;37.698;2023-08-08T03:36:46;25.67;63.46
74873;HTU21D;68776;44.762;37.698;2023-08-08T03:37:47;25.68;63.34
74873;HTU21D;68776;44.762;37.698;2023-08-08T03:38:48;25.74;63.21
74873;HTU21D;68776;44.762;37.698;2023-08-08T03:39:51;25.77;63.11
74873;HTU21D;68776;44.762;37.698;2023-08-08T03:40:51;25.79;63.04
74873;HTU21D;68776;44.762;37.698;2023-08-08T03:41:52;25.81;62.97
74873;HTU21D;68776;44.762;37.698;2023-08-08T03:42:53;25.83;62.87
74873;HTU21D;68776;44.762;37.698;2023-08-08T03:43:54;25.88;62.79
74873;HTU21D;68776;44.762;37.698;2023-08-08T03:44:57;25.92;62.73
74873;HTU21D;68776;44.762;37.698;2023-08-08T03:45:57;25.94;62.62
74873;HTU21D;68776;44.762;37.698;2023-08-08T03:46:58;25.98;62.57
74873;HTU21D;68776;44.762;37.698;2023-08-08T03:47:59;26.02;62.48
74873;HTU21D;68776;44.762;37.698;2023-08-08T03:49:00;26.05;62.41
74873;HTU21D;68776;44.762;37.698;2023-08-08T03:50:01;26.09;62.32
74873;HTU21D;68776;44.762;37.698;2023-08-08T03:51:02;26.11;62.25
74873;HTU21D;68776;44.762;37.698;2023-08-08T03:52:03;26.17;62.14
74873;HTU21D;68776;44.762;37.698;2023-08-08T03:53:04;26.20;62.06
74873;HTU21D;68776;44.762;37.698;2023-08-08T03:54:05;26.23;62.01
74873;HTU21D;68776;44.762;37.698;2023-08-08T03:55:07;26.26;61.96
74873;HTU21D;68776;44.762;37.698;2023-08-08T03:56:08;26.28;61.94
74873;HTU21D;68776;44.762;37.698;2023-08-08T03:57:10;26.33;61.90
74873;HTU21D;68776;44.762;37.698;2023-08-08T03:58:11;26.35;61.85
74873;HTU21D;68776;44.762;37.698;2023-08-08T03:59:11;26.38;61.80
74873;HTU21D;68776;44.762;37.698;2023-08-08T04:00:12;26.39;61.77
74873;HTU21D;68776;44.762;37.698;2023-08-08T04:01:16;26.42;61.73
74873;HTU21D;68776;44.762;37.698;2023-08-08T04:02:17;26.46;61.68
74873;HTU21D;68776;44.762;37.698;2023-08-08T04:03:17;26.48;61.63
74873;HTU21D;68776;44.762;37.698;2023-08-08T04:04:18;26.51;61.59
74873;HTU21D;68776;44.762;37.698;2023-08-08T04:05:19;26.54;61.53
74873;HTU21D;68776;44.762;37.698;2023-08-08T04:06:20;26.56;61.50
74873;HTU21D;68776;44.762;37.698;2023-08-08T04:07:21;26.61;61.44
74873;HTU21D;68776;44.762;37.698;2023-08-08T04:08:23;26.62;61.41
74873;HTU21D;68776;44.762;37.698;2023-08-08T04:09:24;26.65;61.38
74873;HTU21D;68776;44.762;37.698;2023-08-08T04:10:24;26.68;61.36
74873;HTU21D;68776;44.762;37.698;2023-08-08T04:11:25;26.71;61.31
74873;HTU21D;68776;44.762;37.698;2023-08-08T04:12:26;26.75;61.25
74873;HTU21D;68776;44.762;37.698;2023-08-08T04:13:29;26.78;61.29
74873;HTU21D;68776;44.762;37.698;2023-08-08T04:14:31;26.82;61.22
74873;HTU21D;68776;44.762;37.698;2023-08-08T04:15:31;26.84;61.16
74873;HTU21D;68776;44.762;37.698;2023-08-08T04:16:32;26.90;61.11
74873;HTU21D;68776;44.762;37.698;2023-08-08T04:17:33;26.92;61.05
74873;HTU21D;68776;44.762;37.698;2023-08-08T04:18:34;26.95;60.99
74873;HTU21D;68776;44.762;37.698;2023-08-08T04:19:35;27.00;60.92
74873;HTU21D;68776;44.762;37.698;2023-08-08T04:20:35;27.05;60.87
74873;HTU21D;68776;44.762;37.698;2023-08-08T04:21:36;27.08;60.86
74873;HTU21D;68776;44.762;37.698;2023-08-08T04:22:37;27.11;60.81
74873;HTU21D;68776;44.762;37.698;2023-08-08T04:23:38;27.14;60.73
74873;HTU21D;68776;44.762;37.698;2023-08-08T04:24:38;27.19;60.67
74873;HTU21D;68776;44.762;37.698;2023-08-08T04:25:39;27.23;60.64
74873;HTU21D;68776;44.762;37.698;2023-08-08T04:26:40;27.25;60.60
74873;HTU21D;68776;44.762;37.698;2023-08-08T04:27:41;27.28;60.56
74873;HTU21D;68776;44.762;37.698;2023-08-08T04:28:42;27.34;60.98
74873;HTU21D;68776;44.762;37.698;2023-08-08T04:29:43;27.39;61.36
74873;HTU21D;68776;44.762;37.698;2023-08-08T04:30:44;27.45;61.70
74873;HTU21D;68776;44.762;37.698;2023-08-08T04:31:45;27.53;61.96
74873;HTU21D;68776;44.762;37.698;2023-08-08T04:32:46;27.58;62.17
74873;HTU21D;68776;44.762;37.698;2023-08-08T04:33:47;27.65;62.02
74873;HTU21D;68776;44.762;37.698;2023-08-08T04:34:48;27.71;61.89
74873;HTU21D;68776;44.762;37.698;2023-08-08T04:35:49;27.76;61.77
74873;HTU21D;68776;44.762;37.698;2023-08-08T04:36:50;27.82;61.69
74873;HTU21D;68776;44.762;37.698;2023-08-08T04:37:51;27.85;61.63
74873;HTU21D;68776;44.762;37.698;2023-08-08T04:38:52;27.88;61.60
74873;HTU21D;68776;44.762;37.698;2023-08-08T04:39:52;27.93;61.50
74873;HTU21D;68776;44.762;37.698;2023-08-08T04:40:53;27.97;61.35
74873;HTU21D;68776;44.762;37.698;2023-08-08T04:41:54;28.03;61.29
74873;HTU21D;68776;44.762;37.698;2023-08-08T04:42:55;28.09;61.45
74873;HTU21D;68776;44.762;37.698;2023-08-08T04:43:56;28.14;61.34
74873;HTU21D;68776;44.762;37.698;2023-08-08T04:44:57;28.19;61.25
74873;HTU21D;68776;44.762;37.698;2023-08-08T04:45:58;28.25;61.17
74873;HTU21D;68776;44.762;37.698;2023-08-08T04:46:59;28.31;61.09
74873;HTU21D;68776;44.762;37.698;2023-08-08T04:48:00;28.37;60.99
74873;HTU21D;68776;44.762;37.698;2023-08-08T04:49:01;28.39;60.98
74873;HTU21D;68776;44.762;37.698;2023-08-08T04:50:02;28.43;60.90
74873;HTU21D;68776;44.762;37.698;2023-08-08T04:51:06;28.42;60.90
74873;HTU21D;68776;44.762;37.698;2023-08-08T04:52:07;28.45;60.89
74873;HTU21D;68776;44.762;37.698;2023-08-08T04:53:08;28.49;60.81
74873;HTU21D;68776;44.762;37.698;2023-08-08T04:54:09;28.53;60.74
74873;HTU21D;68776;44.762;37.698;2023-08-08T04:55:10;28.59;60.67
74873;HTU21D;68776;44.762;37.698;2023-08-08T04:56:11;28.63;60.59
74873;HTU21D;68776;44.762;37.698;2023-08-08T04:57:12;28.67;60.54
74873;HTU21D;68776;44.762;37.698;2023-08-08T04:58:13;28.70;60.50
74873;HTU21D;68776;44.762;37.698;2023-08-08T04:59:14;28.71;60.48
74873;HTU21D;68776;44.762;37.698;2023-08-08T05:00:15;28.74;60.41
74873;HTU21D;68776;44.762;37.698;2023-08-08T05:01:16;28.79;60.35
74873;HTU21D;68776;44.762;37.698;2023-08-08T05:02:18;28.84;60.25
74873;HTU21D;68776;44.762;37.698;2023-08-08T05:03:19;28.90;60.11
74873;HTU21D;68776;44.762;37.698;2023-08-08T05:04:19;28.93;59.95
74873;HTU21D;68776;44.762;37.698;2023-08-08T05:05:20;28.95;59.89
74873;HTU21D;68776;44.762;37.698;2023-08-08T05:06:21;28.99;59.78
74873;HTU21D;68776;44.762;37.698;2023-08-08T05:07:22;29.03;59.70
74873;HTU21D;68776;44.762;37.698;2023-08-08T05:08:23;29.04;59.61
74873;HTU21D;68776;44.762;37.698;2023-08-08T05:09:24;29.06;59.54
74873;HTU21D;68776;44.762;37.698;2023-08-08T05:10:26;29.08;59.51
74873;HTU21D;68776;44.762;37.698;2023-08-08T05:11:27;29.13;59.39
74873;HTU21D;68776;44.762;37.698;2023-08-08T05:12:28;29.17;59.31
74873;HTU21D;68776;44.762;37.698;2023-08-08T05:13:29;29.23;59.19
74873;HTU21D;68776;44.762;37.698;2023-08-08T05:14:30;29.28;59.09
74873;HTU21D;68776;44.762;37.698;2023-08-08T05:15:30;29.31;59.00
74873;HTU21D;68776;44.762;37.698;2023-08-08T05:16:31;29.36;58.91
74873;HTU21D;68776;44.762;37.698;2023-08-08T05:17:32;29.42;58.83
74873;HTU21D;68776;44.762;37.698;2023-08-08T05:18:32;29.46;58.72
74873;HTU21D;68776;44.762;37.698;2023-08-08T05:19:33;29.52;58.63
74873;HTU21D;68776;44.762;37.698;2023-08-08T05:20:34;29.58;58.61
74873;HTU21D;68776;44.762;37.698;2023-08-08T05:21:35;29.62;58.58
74873;HTU21D;68776;44.762;37.698;2023-08-08T05:22:36;29.68;58.52
74873;HTU21D;68776;44.762;37.698;2023-08-08T05:23:37;29.75;58.50
74873;HTU21D;68776;44.762;37.698;2023-08-08T05:24:39;29.81;58.42
74873;HTU21D;68776;44.762;37.698;2023-08-08T05:25:40;29.90;58.35
74873;HTU21D;68776;44.762;37.698;2023-08-08T05:26:41;29.98;58.22
74873;HTU21D;68776;44.762;37.698;2023-08-08T05:27:42;30.04;58.22
74873;HTU21D;68776;44.762;37.698;2023-08-08T05:28:43;30.07;58.20
74873;HTU21D;68776;44.762;37.698;2023-08-08T05:29:44;30.13;58.10
74873;HTU21D;68776;44.762;37.698;2023-08-08T05:30:45;30.19;57.84
74873;HTU21D;68776;44.762;37.698;2023-08-08T05:31:46;30.25;57.62
74873;HTU21D;68776;44.762;37.698;2023-08-08T05:32:48;30.33;57.48
74873;HTU21D;68776;44.762;37.698;2023-08-08T05:33:49;30.40;57.36
74873;HTU21D;68776;44.762;37.698;2023-08-08T05:34:51;30.45;57.27
74873;HTU21D;68776;44.762;37.698;2023-08-08T05:35:52;30.52;57.26
74873;HTU21D;68776;44.762;37.698;2023-08-08T05:36:53;30.59;57.21
74873;HTU21D;68776;44.762;37.698;2023-08-08T05:37:54;30.65;56.99
74873;HTU21D;68776;44.762;37.698;2023-08-08T05:38:55;30.69;56.83
74873;HTU21D;68776;44.762;37.698;2023-08-08T05:39:56;30.71;56.64
74873;HTU21D;68776;44.762;37.698;2023-08-08T05:40:57;30.74;56.56
74873;HTU21D;68776;44.762;37.698;2023-08-08T05:41:58;30.77;56.51
74873;HTU21D;68776;44.762;37.698;2023-08-08T05:42:59;30.79;56.40
74873;HTU21D;68776;44.762;37.698;2023-08-08T05:43:59;30.83;56.25
74873;HTU21D;68776;44.762;37.698;2023-08-08T05:45:00;30.86;56.05
74873;HTU21D;68776;44.762;37.698;2023-08-08T05:46:01;30.94;55.83
74873;HTU21D;68776;44.762;37.698;2023-08-08T05:47:03;30.97;55.91
74873;HTU21D;68776;44.762;37.698;2023-08-08T05:48:04;31.05;55.86
74873;HTU21D;68776;44.762;37.698;2023-08-08T05:49:05;31.08;55.81
74873;HTU21D;68776;44.762;37.698;2023-08-08T05:50:07;31.10;55.81
74873;HTU21D;68776;44.762;37.698;2023-08-08T05:51:08;31.12;55.84
74873;HTU21D;68776;44.762;37.698;2023-08-08T05:52:09;31.16;55.74
74873;HTU21D;68776;44.762;37.698;2023-08-08T05:53:10;31.23;55.61
74873;HTU21D;68776;44.762;37.698;2023-08-08T05:54:11;31.28;55.26
74873;HTU21D;68776;44.762;37.698;2023-08-08T05:55:12;31.31;55.00
74873;HTU21D;68776;44.762;37.698;2023-08-08T05:56:13;31.35;54.82
74873;HTU21D;68776;44.762;37.698;2023-08-08T05:57:14;31.34;54.70
74873;HTU21D;68776;44.762;37.698;2023-08-08T05:58:15;31.33;54.62
74873;HTU21D;68776;44.762;37.698;2023-08-08T05:59:16;31.31;54.43
74873;HTU21D;68776;44.762;37.698;2023-08-08T06:00:17;31.37;54.17
74873;HTU21D;68776;44.762;37.698;2023-08-08T06:01:18;31.44;53.94
74873;HTU21D;68776;44.762;37.698;2023-08-08T06:02:19;31.53;53.67
74873;HTU21D;68776;44.762;37.698;2023-08-08T06:03:20;31.63;53.44
74873;HTU21D;68776;44.762;37.698;2023-08-08T06:04:21;31.73;53.19
74873;HTU21D;68776;44.762;37.698;2023-08-08T06:05:22;31.80;52.94
74873;HTU21D;68776;44.762;37.698;2023-08-08T06:06:25;31.86;53.17
74873;HTU21D;68776;44.762;37.698;2023-08-08T06:07:26;31.93;53.23
74873;HTU21D;68776;44.762;37.698;2023-08-08T06:08:26;31.97;53.23
74873;HTU21D;68776;44.762;37.698;2023-08-08T06:09:27;32.00;53.25
74873;HTU21D;68776;44.762;37.698;2023-08-08T06:10:28;31.99;53.34
74873;HTU21D;68776;44.762;37.698;2023-08-08T06:11:29;32.04;53.27
74873;HTU21D;68776;44.762;37.698;2023-08-08T06:12:30;32.12;53.16
74873;HTU21D;68776;44.762;37.698;2023-08-08T06:13:31;32.16;53.14
74873;HTU21D;68776;44.762;37.698;2023-08-08T06:14:32;32.18;53.07
74873;HTU21D;68776;44.762;37.698;2023-08-08T06:15:32;32.20;53.08
74873;HTU21D;68776;44.762;37.698;2023-08-08T06:16:33;32.19;53.07
74873;HTU21D;68776;44.762;37.698;2023-08-08T06:17:34;32.20;53.07